Map

Track Data

SID SEASON NUMBER BASIN SUBBASIN NAME ISO_TIME NATURE LAT LON WMO_WIND WMO_PRES WMO_AGENCY TRACK_TYPE DIST2LAND LANDFALL IFLAG USA_AGENCY USA_ATCF_ID USA_LAT USA_LON USA_RECORD USA_STATUS USA_WIND USA_PRES USA_SSHS USA_R34_NE USA_R34_SE USA_R34_SW USA_R34_NW USA_R50_NE USA_R50_SE USA_R50_SW USA_R50_NW USA_R64_NE USA_R64_SE USA_R64_SW USA_R64_NW USA_POCI USA_ROCI USA_RMW USA_EYE TOKYO_LAT TOKYO_LON TOKYO_GRADE TOKYO_WIND TOKYO_PRES TOKYO_R50_DIR TOKYO_R50_LONG TOKYO_R50_SHORT TOKYO_R30_DIR TOKYO_R30_LONG TOKYO_R30_SHORT TOKYO_LAND CMA_LAT CMA_LON CMA_CAT CMA_WIND CMA_PRES HKO_LAT HKO_LON HKO_CAT HKO_WIND HKO_PRES NEWDELHI_LAT NEWDELHI_LON NEWDELHI_GRADE NEWDELHI_WIND NEWDELHI_PRES NEWDELHI_CI NEWDELHI_DP NEWDELHI_POCI REUNION_LAT REUNION_LON REUNION_TYPE REUNION_WIND REUNION_PRES REUNION_TNUM REUNION_CI REUNION_RMW REUNION_R34_NE REUNION_R34_SE REUNION_R34_SW REUNION_R34_NW REUNION_R50_NE REUNION_R50_SE REUNION_R50_SW REUNION_R50_NW REUNION_R64_NE REUNION_R64_SE REUNION_R64_SW REUNION_R64_NW BOM_LAT BOM_LON BOM_TYPE BOM_WIND BOM_PRES BOM_TNUM BOM_CI BOM_RMW BOM_R34_NE BOM_R34_SE BOM_R34_SW BOM_R34_NW BOM_R50_NE BOM_R50_SE BOM_R50_SW BOM_R50_NW BOM_R64_NE BOM_R64_SE BOM_R64_SW BOM_R64_NW BOM_ROCI BOM_POCI BOM_EYE BOM_POS_METHOD BOM_PRES_METHOD NADI_LAT NADI_LON NADI_CAT NADI_WIND NADI_PRES WELLINGTON_LAT WELLINGTON_LON WELLINGTON_WIND WELLINGTON_PRES DS824_LAT DS824_LON DS824_STAGE DS824_WIND DS824_PRES TD9636_LAT TD9636_LON TD9636_STAGE TD9636_WIND TD9636_PRES TD9635_LAT TD9635_LON TD9635_WIND TD9635_PRES TD9635_ROCI NEUMANN_LAT NEUMANN_LON NEUMANN_CLASS NEUMANN_WIND NEUMANN_PRES MLC_LAT MLC_LON MLC_CLASS MLC_WIND MLC_PRES USA_GUST BOM_GUST BOM_GUST_PER REUNION_GUST REUNION_GUST_PER USA_SEAHGT USA_SEARAD_NE USA_SEARAD_SE USA_SEARAD_SW USA_SEARAD_NW STORM_SPEED STORM_DIR
2000223N18257 2000 61 EP MM HECTOR 2000-08-10 06:00:00 NR 18.0000 -103.500 main 33 33 O_____________ jtwc_ep EP102000 18.0000 -103.500 25 -1 14 272
2000223N18257 2000 61 EP MM HECTOR 2000-08-10 09:00:00 NR 18.0229 -104.237 main 81 81 P_____________ EP102000 18.0229 -104.237 25 -1 14 270
2000223N18257 2000 61 EP MM HECTOR 2000-08-10 12:00:00 NR 18.0000 -105.000 main 134 134 O_____________ jtwc_ep EP102000 18.0000 -105.000 25 -1 15 266
2000223N18257 2000 61 EP MM HECTOR 2000-08-10 15:00:00 NR 17.9074 -105.800 main 179 179 P_____________ EP102000 17.9074 -105.800 25 -1 15 263
2000223N18257 2000 61 EP MM HECTOR 2000-08-10 18:00:00 TS 17.8000 -106.600 25 1006 hurdat_epa main 245 245 O_____________ hurdat_epa EP102000 17.8000 -106.600 TD 25 1006 -1 15 263
2000223N18257 2000 61 EP MM HECTOR 2000-08-10 21:00:00 TS 17.7204 -107.390 main 314 314 P_____________ EP102000 17.7199 -107.388 TD 25 1005 -1 14 266
2000223N18257 2000 61 EP MM HECTOR 2000-08-11 00:00:00 TS 17.7000 -108.100 25 1005 hurdat_epa main 370 370 O_____________ hurdat_epa EP102000 17.7000 -108.100 TD 25 1005 -1 12 273
2000223N18257 2000 61 EP MM HECTOR 2000-08-11 03:00:00 TS 17.7770 -108.672 main 416 416 P_____________ EP102000 17.7770 -108.672 TD 25 1004 -1 11 281
2000223N18257 2000 61 EP MM HECTOR 2000-08-11 06:00:00 TS 17.9000 -109.200 25 1003 hurdat_epa main 454 454 O_____________ hurdat_epa EP102000 17.9000 -109.200 TD 25 1003 -1 11 282
2000223N18257 2000 61 EP MM HECTOR 2000-08-11 09:00:00 TS 17.9998 -109.785 main 504 504 P_____________ EP102000 17.9998 -109.785 TD 27 1003 -1 12 280
2000223N18257 2000 61 EP MM HECTOR 2000-08-11 12:00:00 TS 18.1000 -110.400 30 1003 hurdat_epa main 538 532 O_____________ hurdat_epa EP102000 18.1000 -110.400 TD 30 1003 -1 12 279
2000223N18257 2000 61 EP MM HECTOR 2000-08-11 15:00:00 TS 18.1999 -111.050 main 537 534 P_____________ EP102000 18.1999 -111.050 TD 30 1003 -1 13 279
2000223N18257 2000 61 EP MM HECTOR 2000-08-11 18:00:00 TS 18.3000 -111.700 30 1003 hurdat_epa main 543 543 O_____________ hurdat_epa EP102000 18.3000 -111.700 TD 30 1003 -1 12 280
2000223N18257 2000 61 EP MM HECTOR 2000-08-11 21:00:00 TS 18.4147 -112.307 main 557 556 P_____________ EP102000 18.4147 -112.307 TD 32 1002 -1 12 280
2000223N18257 2000 61 EP MM HECTOR 2000-08-12 00:00:00 TS 18.5000 -112.900 35 1002 hurdat_epa main 577 577 O_____________ hurdat_epa EP102000 18.5000 -112.900 TS 35 1002 0 12 275
2000223N18257 2000 61 EP MM HECTOR 2000-08-12 03:00:00 TS 18.5224 -113.515 main 611 611 P_____________ EP102000 18.5224 -113.515 TS 37 1001 0 11 270
2000223N18257 2000 61 EP MM HECTOR 2000-08-12 06:00:00 TS 18.5000 -114.100 40 1001 hurdat_epa main 651 651 O_____________ hurdat_epa EP102000 18.5000 -114.100 TS 40 1001 0 11 267
2000223N18257 2000 61 EP MM HECTOR 2000-08-12 09:00:00 TS 18.4649 -114.637 main 686 686 P_____________ EP102000 18.4649 -114.637 TS 42 1000 0 10 264
2000223N18257 2000 61 EP MM HECTOR 2000-08-12 12:00:00 TS 18.4000 -115.100 45 999 hurdat_epa main 731 731 O_____________ hurdat_epa EP102000 18.4000 -115.100 TS 45 999 0 8 258
2000223N18257 2000 61 EP MM HECTOR 2000-08-12 15:00:00 TS 18.2998 -115.473 main 769 769 P_____________ EP102000 18.2998 -115.473 TS 47 998 0 7 253
2000223N18257 2000 61 EP MM HECTOR 2000-08-12 18:00:00 TS 18.2000 -115.800 50 997 hurdat_epa main 800 800 O_____________ hurdat_epa EP102000 18.2000 -115.800 TS 50 997 0 7 255
2000223N18257 2000 61 EP MM HECTOR 2000-08-12 21:00:00 TS 18.1274 -116.150 main 839 839 P_____________ EP102000 18.1274 -116.150 TS 50 996 0 7 261
2000223N18257 2000 61 EP MM HECTOR 2000-08-13 00:00:00 TS 18.1000 -116.500 50 996 hurdat_epa main 863 863 O_____________ hurdat_epa EP102000 18.1000 -116.500 TS 50 996 0 7 271
2000223N18257 2000 61 EP MM HECTOR 2000-08-13 03:00:00 TS 18.1425 -116.865 main 889 880 P_____________ EP102000 18.1425 -116.865 TS 52 995 0 7 279
2000223N18257 2000 61 EP MM HECTOR 2000-08-13 06:00:00 TS 18.2000 -117.200 55 994 hurdat_epa main 897 897 O_____________ hurdat_epa EP102000 18.2000 -117.200 TS 55 994 0 6 276
2000223N18257 2000 61 EP MM HECTOR 2000-08-13 09:00:00 TS 18.1999 -117.473 main 916 916 P_____________ EP102000 18.1999 -117.473 TS 55 993 0 5 270
2000223N18257 2000 61 EP MM HECTOR 2000-08-13 12:00:00 TS 18.2000 -117.700 55 993 hurdat_epa main 929 929 O_____________ hurdat_epa EP102000 18.2000 -117.700 TS 55 993 0 4 276
2000223N18257 2000 61 EP MM HECTOR 2000-08-13 15:00:00 TS 18.2425 -117.915 main 942 933 P_____________ EP102000 18.2425 -117.915 TS 57 991 0 4 285
2000223N18257 2000 61 EP MM HECTOR 2000-08-13 18:00:00 TS 18.3000 -118.100 60 990 hurdat_epa main 946 946 O_____________ hurdat_epa EP102000 18.3000 -118.100 TS 60 990 0 3 287
2000223N18257 2000 61 EP MM HECTOR 2000-08-13 21:00:00 TS 18.3349 -118.243 main 953 952 P_____________ EP102000 18.3349 -118.243 TS 62 988 0 3 289
2000223N18257 2000 61 EP MM HECTOR 2000-08-14 00:00:00 TS 18.4000 -118.400 65 986 hurdat_epa main 959 957 O_____________ hurdat_epa EP102000 18.4000 -118.400 HU 65 986 1 4 297
2000223N18257 2000 61 EP MM HECTOR 2000-08-14 03:00:00 TS 18.5275 -118.642 main 964 963 P_____________ EP102000 18.5275 -118.642 HU 65 985 1 6 302
2000223N18257 2000 61 EP MM HECTOR 2000-08-14 06:00:00 TS 18.7000 -118.900 65 985 hurdat_epa main 970 970 O_____________ hurdat_epa EP102000 18.7000 -118.900 HU 65 985 1 6 311
2000223N18257 2000 61 EP MM HECTOR 2000-08-14 09:00:00 TS 18.8924 -119.093 main 970 962 P_____________ EP102000 18.8924 -119.093 HU 67 984 1 6 317
2000223N18257 2000 61 EP MM HECTOR 2000-08-14 12:00:00 TS 19.1000 -119.300 70 983 hurdat_epa main 970 970 O_____________ hurdat_epa EP102000 19.1000 -119.300 HU 70 983 1 6 311
2000223N18257 2000 61 EP MM HECTOR 2000-08-14 15:00:00 TS 19.2925 -119.585 main 979 979 P_____________ EP102000 19.2925 -119.585 HU 70 983 1 7 305
2000223N18257 2000 61 EP MM HECTOR 2000-08-14 18:00:00 TS 19.5000 -119.900 70 984 hurdat_epa main 989 989 O_____________ hurdat_epa EP102000 19.5000 -119.900 HU 70 984 1 7 309
2000223N18257 2000 61 EP MM HECTOR 2000-08-14 21:00:00 TS 19.7574 -120.192 main 994 994 P_____________ EP102000 19.7574 -120.192 HU 67 985 1 8 311
2000223N18257 2000 61 EP MM HECTOR 2000-08-15 00:00:00 TS 20.0000 -120.500 65 987 hurdat_epa main 1007 1007 O_____________ hurdat_epa EP102000 20.0000 -120.500 HU 65 987 1 7 306
2000223N18257 2000 61 EP MM HECTOR 2000-08-15 03:00:00 TS 20.1874 -120.827 main 1017 1017 P_____________ EP102000 20.1874 -120.827 HU 62 988 0 7 295
2000223N18257 2000 61 EP MM HECTOR 2000-08-15 06:00:00 TS 20.3000 -121.200 60 990 hurdat_epa main 1035 1035 O_____________ hurdat_epa EP102000 20.3000 -121.200 TS 60 990 0 8 281
2000223N18257 2000 61 EP MM HECTOR 2000-08-15 09:00:00 TS 20.3300 -121.635 main 1062 1062 P_____________ EP102000 20.3300 -121.635 TS 57 992 0 8 270
2000223N18257 2000 61 EP MM HECTOR 2000-08-15 12:00:00 TS 20.3000 -122.100 55 994 hurdat_epa main 1096 1096 O_____________ hurdat_epa EP102000 20.3000 -122.100 TS 55 994 0 9 266
2000223N18257 2000 61 EP MM HECTOR 2000-08-15 15:00:00 TS 20.2649 -122.550 main 1123 1123 P_____________ EP102000 20.2649 -122.550 TS 50 996 0 9 263
2000223N18257 2000 61 EP MM HECTOR 2000-08-15 18:00:00 TS 20.2000 -123.000 45 998 hurdat_epa main 1166 1166 O_____________ hurdat_epa EP102000 20.2000 -123.000 TS 45 998 0 8 258
2000223N18257 2000 61 EP MM HECTOR 2000-08-15 21:00:00 TS 20.0923 -123.435 main 1203 1203 P_____________ EP102000 20.0923 -123.435 TS 40 999 0 9 257
2000223N18257 2000 61 EP MM HECTOR 2000-08-16 00:00:00 TS 20.0000 -123.900 35 1000 hurdat_epa main 1247 1247 O_____________ hurdat_epa EP102000 20.0000 -123.900 TS 35 1000 0 9 263
2000223N18257 2000 61 EP MM HECTOR 2000-08-16 03:00:00 TS 19.9846 -124.397 main 1284 1284 P_____________ EP102000 19.9846 -124.397 TS 32 1002 -1 10 270
2000223N18257 2000 61 EP MM HECTOR 2000-08-16 06:00:00 TS 20.0000 -125.000 30 1004 hurdat_epa main 1330 1330 O_____________ hurdat_epa EP102000 20.0000 -125.000 TD 30 1004 -1 13 271
2000223N18257 2000 61 EP MM HECTOR 2000-08-16 09:00:00 TS 20.0003 -125.778 main 1393 1393 P_____________ EP102000 20.0003 -125.778 TD 27 1004 -1 15 270
2000223N18257 2000 61 EP MM HECTOR 2000-08-16 12:00:00 TS 20.0000 -126.600 25 1005 hurdat_epa main 1458 1458 O_____________ hurdat_epa EP102000 20.0000 -126.600 TD 25 1005 -1 15 270
2000223N18257 2000 61 EP MM HECTOR 2000-08-16 15:00:00 TS 20.0001 -127.332 main 1516 1516 P_____________ EP102000 20.0001 -127.332 TD 25 1005 -1 13 270
2000223N18257 2000 61 EP MM HECTOR 2000-08-16 18:00:00 TS 20.0000 -128.000 25 1006 hurdat_epa main 1575 O_____________ hurdat_epa EP102000 20.0000 -128.000 TD 25 1006 -1 13 270

About IBTrACS Database

This database is a web-friendly format of International Best Track Archive for Climate Stewardship (IBTrACS), a global best track data archive curated by NOAA dating back to 1842.

Updated: 2021-12-01